createdAt,value
2022-12-09T00:00:56.083Z,-0.3
2022-12-09T00:01:59.129Z,-0.4
2022-12-09T00:03:01.326Z,-0.4
2022-12-09T00:04:04.229Z,-0.4
2022-12-09T00:05:06.693Z,-0.4
2022-12-09T00:06:08.088Z,-0.3
2022-12-09T00:07:10.069Z,-0.3
2022-12-09T00:08:13.138Z,-0.4
2022-12-09T00:09:15.277Z,-0.3
2022-12-09T00:10:17.083Z,-0.4
2022-12-09T00:11:19.279Z,-0.4
2022-12-09T00:12:21.081Z,-0.4
2022-12-09T00:13:23.107Z,-0.4
2022-12-09T00:14:25.082Z,-0.4
2022-12-09T00:15:27.294Z,-0.4
2022-12-09T00:16:29.497Z,-0.4
2022-12-09T00:17:32.353Z,-0.4
2022-12-09T00:18:34.334Z,-0.4
2022-12-09T00:19:36.215Z,-0.4
2022-12-09T00:20:38.195Z,-0.4
2022-12-09T00:21:40.092Z,-0.4
2022-12-09T00:22:43.091Z,-0.4
2022-12-09T00:23:45.154Z,-0.5
2022-12-09T00:24:47.246Z,-0.5
2022-12-09T00:25:49.316Z,-0.5
2022-12-09T00:26:52.143Z,-0.5
2022-12-09T00:27:54.185Z,-0.5
2022-12-09T00:28:56.164Z,-0.5
2022-12-09T00:29:58.135Z,-0.5
2022-12-09T00:31:00.239Z,-0.6
2022-12-09T00:32:03.275Z,-0.5
2022-12-09T00:33:05.352Z,-0.6
2022-12-09T00:34:07.307Z,-0.6
2022-12-09T00:35:09.193Z,-0.6
2022-12-09T00:36:11.157Z,-0.6
2022-12-09T00:37:13.094Z,-0.6
2022-12-09T00:38:15.115Z,-0.6
2022-12-09T00:39:17.303Z,-0.6
2022-12-09T00:40:19.255Z,-0.6
2022-12-09T00:41:22.108Z,-0.6
2022-12-09T00:42:24.207Z,-0.7
2022-12-09T00:43:26.224Z,-0.7
2022-12-09T00:44:29.158Z,-0.7
2022-12-09T00:45:32.111Z,-0.7
2022-12-09T00:46:34.284Z,-0.7
2022-12-09T00:47:36.203Z,-0.7
2022-12-09T00:48:38.115Z,-0.7
2022-12-09T00:49:40.107Z,-0.8
2022-12-09T00:50:42.338Z,-0.8
2022-12-09T00:51:44.114Z,-0.8
2022-12-09T00:52:46.108Z,-0.8
2022-12-09T00:53:48.181Z,-0.8
2022-12-09T00:54:51.146Z,-0.8
2022-12-09T00:55:53.211Z,-0.8
2022-12-09T00:56:55.097Z,-0.8
2022-12-09T00:57:57.301Z,-0.8
2022-12-09T00:58:59.288Z,-0.8
2022-12-09T01:00:01.366Z,-0.8
2022-12-09T01:01:04.197Z,-0.8
2022-12-09T01:02:06.346Z,-0.8
2022-12-09T01:03:08.330Z,-0.8
2022-12-09T01:04:10.369Z,-0.8
2022-12-09T01:05:12.525Z,-0.8
2022-12-09T01:06:14.324Z,-0.8
2022-12-09T01:07:16.110Z,-0.8
2022-12-09T01:08:18.223Z,-0.8
2022-12-09T01:09:20.320Z,-0.8
2022-12-09T01:10:22.342Z,-0.8
2022-12-09T01:11:24.454Z,-0.8
2022-12-09T01:13:29.168Z,-0.8
2022-12-09T01:14:32.111Z,-0.8
2022-12-09T01:16:36.411Z,-0.8
2022-12-09T01:17:38.324Z,-0.8
2022-12-09T01:18:40.309Z,-0.8
2022-12-09T01:19:42.334Z,-0.8
2022-12-09T01:20:44.306Z,-0.8
2022-12-09T01:21:46.344Z,-0.8
2022-12-09T01:22:48.288Z,-0.8
2022-12-09T01:23:51.397Z,-0.8
2022-12-09T01:24:53.126Z,-0.8
2022-12-09T01:25:55.134Z,-0.8
2022-12-09T01:26:57.131Z,-0.8
2022-12-09T01:27:59.174Z,-0.8
2022-12-09T01:29:01.400Z,-0.8
2022-12-09T01:30:04.402Z,-0.8
2022-12-09T01:31:06.510Z,-0.8
2022-12-09T01:32:08.251Z,-0.8
2022-12-09T01:33:10.554Z,-0.8
2022-12-09T01:34:12.228Z,-0.8
2022-12-09T01:35:15.127Z,-0.8
2022-12-09T01:36:17.444Z,-0.7
2022-12-09T01:37:19.132Z,-0.6
2022-12-09T01:38:21.450Z,-0.5
2022-12-09T01:39:24.164Z,-0.5
2022-12-09T01:40:26.404Z,-0.5
2022-12-09T01:41:29.540Z,-0.5
2022-12-09T01:42:32.437Z,-0.6
2022-12-09T01:43:34.481Z,-0.6
2022-12-09T01:44:36.333Z,-0.6
2022-12-09T01:45:38.188Z,-0.6
2022-12-09T01:46:41.375Z,-0.6
2022-12-09T01:47:43.230Z,-0.7
2022-12-09T01:48:46.440Z,-0.7
2022-12-09T01:49:48.351Z,-0.7
2022-12-09T01:50:50.274Z,-0.7
2022-12-09T01:51:52.372Z,-0.7
2022-12-09T01:52:54.242Z,-0.7
2022-12-09T01:53:56.486Z,-0.7
2022-12-09T01:54:58.473Z,-0.7
2022-12-09T01:56:01.477Z,-0.7
2022-12-09T01:57:03.142Z,-0.7
2022-12-09T01:58:05.164Z,-0.7
2022-12-09T01:59:07.178Z,-0.7
2022-12-09T02:00:09.629Z,-0.7
2022-12-09T02:01:11.343Z,-0.7
2022-12-09T02:02:13.275Z,-0.7
2022-12-09T02:03:15.556Z,-0.8
2022-12-09T02:04:17.249Z,-0.7
2022-12-09T02:05:19.633Z,-0.7
2022-12-09T02:06:21.149Z,-0.7
2022-12-09T02:07:23.145Z,-0.7
2022-12-09T02:08:25.565Z,-0.8
2022-12-09T02:09:29.231Z,-0.8
2022-12-09T02:10:33.382Z,-0.8
2022-12-09T02:11:35.185Z,-0.8
2022-12-09T02:12:37.155Z,-0.8
2022-12-09T02:13:40.202Z,-0.8
2022-12-09T02:14:43.502Z,-0.8
2022-12-09T02:15:45.397Z,-0.7
2022-12-09T02:16:48.352Z,-0.8
2022-12-09T02:17:50.339Z,-0.7
2022-12-09T02:18:52.329Z,-0.7
2022-12-09T02:19:54.435Z,-0.7
2022-12-09T02:20:56.200Z,-0.7
2022-12-09T02:21:58.166Z,-0.7
2022-12-09T02:23:00.173Z,-0.7
2022-12-09T02:24:02.416Z,-0.7
2022-12-09T02:25:05.265Z,-0.7
2022-12-09T02:26:07.394Z,-0.7
2022-12-09T02:27:09.384Z,-0.7
2022-12-09T02:28:11.164Z,-0.7
2022-12-09T02:29:13.199Z,-0.7
2022-12-09T02:30:15.431Z,-0.7
2022-12-09T02:31:19.770Z,-0.7
2022-12-09T02:32:20.705Z,-0.7
2022-12-09T02:33:22.253Z,-0.7
2022-12-09T02:34:25.161Z,-0.7
2022-12-09T02:35:27.165Z,-0.7
2022-12-09T02:36:29.181Z,-0.7
2022-12-09T02:37:33.445Z,-0.7
2022-12-09T02:38:36.361Z,-0.7
2022-12-09T02:39:38.187Z,-0.7
2022-12-09T02:40:40.512Z,-0.7
2022-12-09T02:41:43.168Z,-0.7
2022-12-09T02:42:45.451Z,-0.7
2022-12-09T02:43:50.088Z,-0.7
2022-12-09T02:44:49.475Z,-0.7
2022-12-09T02:45:51.214Z,-0.7
2022-12-09T02:46:53.285Z,-0.7
2022-12-09T02:47:55.445Z,-0.7
2022-12-09T02:48:57.259Z,-0.7
2022-12-09T02:49:59.424Z,-0.6
2022-12-09T02:51:03.139Z,-0.5
2022-12-09T02:52:04.276Z,-0.5
2022-12-09T02:53:06.415Z,-0.4
2022-12-09T02:54:08.177Z,-0.4
2022-12-09T02:55:10.208Z,-0.4
2022-12-09T02:56:12.176Z,-0.4
2022-12-09T02:57:14.184Z,-0.4
2022-12-09T02:58:16.182Z,-0.3
2022-12-09T02:59:18.193Z,-0.3
2022-12-09T03:00:21.192Z,-0.3
2022-12-09T03:01:23.311Z,-0.3
2022-12-09T03:02:25.367Z,-0.2
2022-12-09T03:03:27.434Z,-0.3
2022-12-09T03:04:29.297Z,-0.3
2022-12-09T03:05:33.193Z,-0.2
2022-12-09T03:06:35.417Z,-0.2
2022-12-09T03:07:37.220Z,-0.2
2022-12-09T03:08:39.561Z,-0.3
2022-12-09T03:09:41.396Z,-0.3
2022-12-09T03:10:43.551Z,-0.3
2022-12-09T03:11:45.193Z,-0.3
2022-12-09T03:12:47.385Z,-0.3
2022-12-09T03:13:50.620Z,-0.3
2022-12-09T03:14:52.195Z,-0.4
2022-12-09T03:15:54.423Z,-0.4
2022-12-09T03:16:56.357Z,-0.4
2022-12-09T03:17:58.264Z,-0.4
2022-12-09T03:19:00.561Z,-0.4
2022-12-09T03:20:02.267Z,-0.4
2022-12-09T03:21:04.199Z,-0.4
2022-12-09T03:22:06.561Z,-0.4
2022-12-09T03:23:08.257Z,-0.4
2022-12-09T03:24:10.314Z,-0.3
2022-12-09T03:25:13.473Z,-0.3
2022-12-09T03:26:15.417Z,-0.3
2022-12-09T03:27:17.582Z,-0.3
2022-12-09T03:28:19.237Z,-0.4
2022-12-09T03:29:21.202Z,-0.3
2022-12-09T03:30:24.595Z,-0.3
2022-12-09T03:31:26.387Z,-0.4
2022-12-09T03:32:29.669Z,-0.3
2022-12-09T03:33:32.449Z,-0.4
2022-12-09T03:34:34.421Z,-0.4
2022-12-09T03:35:36.295Z,-0.4
2022-12-09T03:36:38.558Z,-0.4
2022-12-09T03:37:40.228Z,-0.3
2022-12-09T03:38:42.245Z,-0.3
2022-12-09T03:39:44.490Z,-0.3
2022-12-09T03:40:46.432Z,-0.4
2022-12-09T03:41:48.256Z,-0.4
2022-12-09T03:42:50.522Z,-0.4
2022-12-09T03:43:52.437Z,-0.4
2022-12-09T03:44:54.408Z,-0.4
2022-12-09T03:45:56.422Z,-0.5
2022-12-09T03:46:58.631Z,-0.5
2022-12-09T03:48:00.643Z,-0.5
2022-12-09T03:49:02.245Z,-0.5
2022-12-09T03:50:04.327Z,-0.4
2022-12-09T03:51:06.852Z,-0.5
2022-12-09T03:52:08.211Z,-0.4
2022-12-09T03:53:10.224Z,-0.4
2022-12-09T03:54:13.304Z,-0.4
2022-12-09T03:55:15.272Z,-0.3
2022-12-09T03:56:17.239Z,-0.3
2022-12-09T03:57:19.868Z,-0.3
2022-12-09T03:58:22.590Z,-0.2
2022-12-09T03:59:24.411Z,-0.2
2022-12-09T04:00:26.461Z,-0.3
2022-12-09T04:01:29.658Z,-0.3
2022-12-09T04:02:32.388Z,-0.3
2022-12-09T04:03:34.710Z,-0.3
2022-12-09T04:04:36.746Z,-0.3
2022-12-09T04:05:38.222Z,-0.2
2022-12-09T04:06:40.573Z,-0.2
2022-12-09T04:07:55.671Z,-0.3
2022-12-09T04:08:44.330Z,-0.3
2022-12-09T04:09:46.358Z,-0.3
2022-12-09T04:10:48.378Z,-0.2
2022-12-09T04:11:50.216Z,-0.3
2022-12-09T04:12:52.224Z,-0.3
2022-12-09T04:13:54.220Z,-0.3
2022-12-09T04:14:56.246Z,-0.4
2022-12-09T04:15:58.663Z,-0.4
2022-12-09T04:17:00.470Z,-0.4
2022-12-09T04:18:03.493Z,-0.4
2022-12-09T04:19:05.644Z,-0.4
2022-12-09T04:20:07.882Z,-0.5
2022-12-09T04:21:09.279Z,-0.6
2022-12-09T04:22:11.277Z,-0.6
2022-12-09T04:23:13.410Z,-0.6
2022-12-09T04:24:15.493Z,-0.6
2022-12-09T04:25:17.549Z,-0.6
2022-12-09T04:26:20.522Z,-0.6
2022-12-09T04:27:22.232Z,-0.7
2022-12-09T04:28:24.251Z,-0.7
2022-12-09T04:29:26.233Z,-0.7
2022-12-09T04:30:29.325Z,-0.7
2022-12-09T04:31:32.511Z,-0.7
2022-12-09T04:32:34.522Z,-0.7
2022-12-09T04:33:36.413Z,-0.7
2022-12-09T04:34:38.387Z,-0.8
2022-12-09T04:35:40.297Z,-0.8
2022-12-09T04:36:42.243Z,-0.8
2022-12-09T04:37:44.591Z,-0.8
2022-12-09T04:38:46.483Z,-0.8
2022-12-09T04:39:49.313Z,-0.8
2022-12-09T04:40:51.354Z,-0.9
2022-12-09T04:41:53.251Z,-0.9
2022-12-09T04:43:57.572Z,-0.9
2022-12-09T04:44:59.463Z,-0.9
2022-12-09T04:46:01.524Z,-0.9
2022-12-09T04:47:03.710Z,-0.9
2022-12-09T04:48:05.397Z,-0.8
2022-12-09T04:49:07.554Z,-0.9
2022-12-09T04:50:09.637Z,-0.8
2022-12-09T04:51:11.342Z,-0.8
2022-12-09T04:52:13.256Z,-0.9
2022-12-09T04:53:16.299Z,-0.9
2022-12-09T04:54:18.543Z,-0.8
2022-12-09T04:55:20.551Z,-0.8
2022-12-09T04:56:22.343Z,-0.8
2022-12-09T04:57:24.249Z,-0.9
2022-12-09T04:59:29.512Z,-0.9
2022-12-09T05:00:32.297Z,-0.9
2022-12-09T05:01:34.645Z,-0.9
2022-12-09T05:02:36.367Z,-0.9
2022-12-09T05:03:38.664Z,-0.9
2022-12-09T05:04:40.482Z,-0.9
2022-12-09T05:05:43.405Z,-1
2022-12-09T05:06:45.600Z,-1
2022-12-09T05:07:47.540Z,-1
2022-12-09T05:08:49.384Z,-1
2022-12-09T05:09:51.624Z,-1
2022-12-09T05:10:53.383Z,-1
2022-12-09T05:11:55.349Z,-1
2022-12-09T05:12:58.329Z,-1
2022-12-09T05:14:00.602Z,-1
2022-12-09T05:15:02.709Z,-1
2022-12-09T05:16:04.888Z,-1
2022-12-09T05:17:06.656Z,-1.1
2022-12-09T05:18:09.580Z,-1.1
2022-12-09T05:19:11.505Z,-1.1
2022-12-09T05:20:14.179Z,-1.1
2022-12-09T05:21:15.399Z,-1.1
2022-12-09T05:22:17.307Z,-1.1
2022-12-09T05:23:19.274Z,-1.1
2022-12-09T05:24:21.306Z,-1.1
2022-12-09T05:25:23.474Z,-1.1
2022-12-09T05:26:25.729Z,-1.1
2022-12-09T05:27:27.639Z,-1.1
2022-12-09T05:28:29.681Z,-1.1
2022-12-09T05:29:31.542Z,-1.2
2022-12-09T05:30:34.717Z,-1.2
2022-12-09T05:31:36.575Z,-1.2
2022-12-09T05:32:38.735Z,-1.2
2022-12-09T05:33:40.631Z,-1.2
2022-12-09T05:34:42.779Z,-1.2
2022-12-09T05:35:52.399Z,-1.3
2022-12-09T05:36:46.299Z,-1.3
2022-12-09T05:37:48.608Z,-1.3
2022-12-09T05:38:50.377Z,-1.3
2022-12-09T05:39:52.537Z,-1.3
2022-12-09T05:40:54.281Z,-1.3
2022-12-09T05:41:56.524Z,-1.3
2022-12-09T05:42:58.491Z,-1.3
2022-12-09T05:44:01.119Z,-1.3
2022-12-09T05:45:02.401Z,-1.4
2022-12-09T05:46:04.450Z,-1.4
2022-12-09T05:47:06.687Z,-1.4
2022-12-09T05:48:08.480Z,-1.5
2022-12-09T05:49:11.330Z,-1.5
2022-12-09T05:50:13.713Z,-1.5
2022-12-09T05:51:15.473Z,-1.5
2022-12-09T05:52:17.326Z,-1.5
2022-12-09T05:53:19.356Z,-1.5
2022-12-09T05:54:22.468Z,-1.5
2022-12-09T05:55:24.762Z,-1.5
2022-12-09T05:56:26.725Z,-1.6
2022-12-09T05:57:29.719Z,-1.6
2022-12-09T05:58:32.608Z,-1.6
2022-12-09T05:59:34.425Z,-1.6
2022-12-09T06:00:37.590Z,-1.6
2022-12-09T06:01:39.322Z,-1.6
2022-12-09T06:02:41.748Z,-1.6
2022-12-09T06:03:43.922Z,-1.7
2022-12-09T06:04:45.665Z,-1.7
2022-12-09T06:05:48.795Z,-1.7
2022-12-09T06:06:50.770Z,-1.7
2022-12-09T06:07:52.558Z,-1.7
2022-12-09T06:08:54.391Z,-1.7
2022-12-09T06:09:56.494Z,-1.7
2022-12-09T06:10:58.416Z,-1.7
2022-12-09T06:12:00.665Z,-1.7
2022-12-09T06:13:02.572Z,-1.7
2022-12-09T06:14:04.351Z,-1.7
2022-12-09T06:15:09.643Z,-1.7
2022-12-09T06:16:08.499Z,-1.7
2022-12-09T06:17:10.495Z,-1.7
2022-12-09T06:18:12.956Z,-1.7
2022-12-09T06:19:14.624Z,-1.7
2022-12-09T06:20:16.414Z,-1.7
2022-12-09T06:21:18.434Z,-1.7
2022-12-09T06:22:20.711Z,-1.7
2022-12-09T06:23:22.544Z,-1.7
2022-12-09T06:24:24.644Z,-1.7
2022-12-09T06:26:29.890Z,-1.7
2022-12-09T06:27:32.573Z,-1.6
2022-12-09T06:28:34.731Z,-1.7
2022-12-09T06:30:06.070Z,-1.6
2022-12-09T06:31:06.548Z,-1.6
2022-12-09T06:32:06.406Z,-1.6
2022-12-09T06:33:17.582Z,-1.6
2022-12-09T06:34:06.125Z,-1.6
2022-12-09T06:36:06.092Z,-1.6
2022-12-09T06:37:06.407Z,-1.6
2022-12-09T06:39:10.048Z,-1.6
2022-12-09T06:40:06.043Z,-1.6
2022-12-09T06:41:06.446Z,-1.6
2022-12-09T06:42:06.337Z,-1.6
2022-12-09T06:43:06.234Z,-1.6
2022-12-09T06:44:08.013Z,-1.7
2022-12-09T06:45:09.885Z,-1.7
2022-12-09T06:46:12.100Z,-1.7
2022-12-09T06:47:13.967Z,-1.7
2022-12-09T06:48:15.932Z,-1.7
2022-12-09T06:49:18.095Z,-1.7
2022-12-09T06:50:19.835Z,-1.7
2022-12-09T06:51:22.916Z,-1.7
2022-12-09T06:52:24.730Z,-1.7
2022-12-09T06:53:27.106Z,-1.7
2022-12-09T06:54:29.777Z,-1.7
2022-12-09T06:55:31.798Z,-1.7
2022-12-09T06:56:34.699Z,-1.6
2022-12-09T06:57:36.955Z,-1.6
2022-12-09T06:58:39.868Z,-1.6
2022-12-09T06:59:41.696Z,-1.6
2022-12-09T07:00:43.884Z,-1.6
2022-12-09T07:02:47.923Z,-1.6
2022-12-09T07:03:50.296Z,-1.6
2022-12-09T07:04:52.338Z,-1.5
2022-12-09T07:05:54.458Z,-1.5
2022-12-09T07:06:55.917Z,-1.5
2022-12-09T07:07:58.252Z,-1.5
2022-12-09T07:08:59.996Z,-1.5
2022-12-09T07:10:02.190Z,-1.5
2022-12-09T07:11:03.904Z,-1.5
2022-12-09T07:12:06.090Z,-1.5
2022-12-09T07:13:07.899Z,-1.5
2022-12-09T07:14:10.011Z,-1.5
2022-12-09T07:15:12.194Z,-1.5
2022-12-09T07:16:14.215Z,-1.5
2022-12-09T07:17:15.928Z,-1.5
2022-12-09T07:18:18.285Z,-1.5
2022-12-09T07:19:20.196Z,-1.5
2022-12-09T07:21:24.000Z,-1.4
2022-12-09T07:22:26.004Z,-1.4
2022-12-09T07:23:27.848Z,-1.4
2022-12-09T07:25:06.860Z,-1.4
2022-12-09T07:26:06.213Z,-1.4
2022-12-09T07:27:09.724Z,-1.4
2022-12-09T07:28:06.150Z,-1.4
2022-12-09T07:29:06.526Z,-1.4
2022-12-09T07:30:06.356Z,-1.4
2022-12-09T07:31:06.508Z,-1.3
2022-12-09T07:32:06.363Z,-1.3
2022-12-09T07:33:06.376Z,-1.2
2022-12-09T07:34:06.781Z,-1.3
2022-12-09T07:35:06.522Z,-1.3
2022-12-09T07:36:06.508Z,-1.3
2022-12-09T07:37:06.514Z,-1.3
2022-12-09T07:38:06.292Z,-1.3
2022-12-09T07:39:06.285Z,-1.3
2022-12-09T07:40:06.241Z,-1.4
2022-12-09T07:41:06.341Z,-1.4
2022-12-09T07:42:07.116Z,-1.4
2022-12-09T07:43:08.861Z,-1.4
2022-12-09T07:44:11.151Z,-1.4
2022-12-09T07:45:13.388Z,-1.4
2022-12-09T07:46:14.969Z,-1.4
2022-12-09T07:47:17.210Z,-1.4
2022-12-09T07:49:20.938Z,-1.4
2022-12-09T07:50:22.799Z,-1.4
2022-12-09T07:51:25.166Z,-1.3
2022-12-09T07:52:27.063Z,-1.3
2022-12-09T07:53:29.086Z,-1.3
2022-12-09T07:54:30.835Z,-1.3
2022-12-09T07:55:33.116Z,-1.3
2022-12-09T07:56:35.108Z,-1.3
2022-12-09T07:57:38.594Z,-1.3
2022-12-09T07:58:41.068Z,-1.3
2022-12-09T07:59:42.843Z,-1.3
2022-12-09T08:00:44.764Z,-1.4
2022-12-09T08:01:46.800Z,-1.4
2022-12-09T08:02:48.868Z,-1.4
2022-12-09T08:03:51.362Z,-1.3
2022-12-09T08:04:52.862Z,-1.3
2022-12-09T08:05:55.870Z,-1.4
2022-12-09T08:06:57.948Z,-1.4
2022-12-09T08:07:59.927Z,-1.3
2022-12-09T08:09:02.113Z,-1.3
2022-12-09T08:10:03.909Z,-1.4
2022-12-09T08:11:05.993Z,-1.4
2022-12-09T08:12:07.857Z,-1.3
2022-12-09T08:13:09.795Z,-1.3
2022-12-09T08:14:13.161Z,-1.3
2022-12-09T08:15:15.086Z,-1.3
2022-12-09T08:16:16.937Z,-1.3
2022-12-09T08:17:18.963Z,-1.3
2022-12-09T08:18:21.296Z,-1.3
2022-12-09T08:19:23.003Z,-1.2
2022-12-09T08:20:29.298Z,-1.2
2022-12-09T08:21:27.904Z,-1.2
2022-12-09T08:22:29.883Z,-1.2
2022-12-09T08:23:32.165Z,-1.2
2022-12-09T08:24:34.155Z,-1.2
2022-12-09T08:25:36.855Z,-1.2
2022-12-09T08:26:40.286Z,-1.1
2022-12-09T08:27:41.968Z,-1.1
2022-12-09T08:28:43.891Z,-1
2022-12-09T08:29:46.138Z,-1
2022-12-09T08:30:48.376Z,-1
2022-12-09T08:31:49.825Z,-1
2022-12-09T08:32:51.820Z,-1
2022-12-09T08:33:53.933Z,-1
2022-12-09T08:34:56.007Z,-1
2022-12-09T08:35:58.132Z,-1.1
2022-12-09T08:37:02.284Z,-1
2022-12-09T08:38:01.781Z,-1.1
2022-12-09T08:39:04.222Z,-1.1
2022-12-09T08:40:06.307Z,-1.1
2022-12-09T08:41:08.021Z,-1
2022-12-09T08:42:09.759Z,-1
2022-12-09T08:43:12.121Z,-1
2022-12-09T08:44:13.822Z,-1
2022-12-09T08:45:15.762Z,-1
2022-12-09T08:46:17.988Z,-1
2022-12-09T08:47:19.903Z,-1
2022-12-09T08:48:22.240Z,-0.9
2022-12-09T08:49:24.255Z,-0.9
2022-12-09T08:50:25.862Z,-0.9
2022-12-09T08:51:27.985Z,-0.9
2022-12-09T08:52:30.800Z,-0.9
2022-12-09T08:53:32.257Z,-0.8
2022-12-09T08:54:33.943Z,-0.8
2022-12-09T08:55:36.777Z,-0.8
2022-12-09T08:56:40.204Z,-0.8
2022-12-09T08:57:41.832Z,-0.8
2022-12-09T08:58:44.006Z,-0.8
2022-12-09T08:59:46.074Z,-0.8
2022-12-09T09:00:48.250Z,-0.7
2022-12-09T09:01:50.435Z,-0.7
2022-12-09T09:02:52.142Z,-0.7
2022-12-09T09:03:54.062Z,-0.7
2022-12-09T09:04:55.846Z,-0.7
2022-12-09T09:06:00.872Z,-0.8
2022-12-09T09:07:00.382Z,-0.7
2022-12-09T09:08:01.898Z,-0.7
2022-12-09T09:09:04.073Z,-0.7
2022-12-09T09:10:08.175Z,-0.7
2022-12-09T09:11:09.315Z,-0.8
2022-12-09T09:12:11.409Z,-0.8
2022-12-09T09:13:12.886Z,-0.8
2022-12-09T09:14:15.916Z,-0.8
2022-12-09T09:16:20.215Z,-0.7
2022-12-09T09:17:21.950Z,-0.7
2022-12-09T09:18:23.914Z,-0.7
2022-12-09T09:20:28.907Z,-0.7
2022-12-09T09:21:31.315Z,-0.7
2022-12-09T09:22:32.783Z,-0.8
2022-12-09T09:23:34.815Z,-0.8
2022-12-09T09:24:37.116Z,-0.8
2022-12-09T09:25:40.119Z,-0.7
2022-12-09T09:26:41.930Z,-0.7
2022-12-09T09:27:44.006Z,-0.7
2022-12-09T09:28:46.538Z,-0.7
2022-12-09T09:29:48.270Z,-0.7
2022-12-09T09:30:50.333Z,-0.6
2022-12-09T09:31:51.960Z,-0.6
2022-12-09T09:32:54.377Z,-0.6
2022-12-09T09:33:56.098Z,-0.6
2022-12-09T09:34:57.982Z,-0.6
2022-12-09T09:36:02.771Z,-0.6
2022-12-09T09:37:01.815Z,-0.6
2022-12-09T09:38:03.891Z,-0.5
2022-12-09T09:39:06.103Z,-0.5
2022-12-09T09:40:08.146Z,-0.5
2022-12-09T09:41:10.144Z,-0.5
2022-12-09T09:42:12.255Z,-0.4
2022-12-09T09:43:14.336Z,-0.4
2022-12-09T09:44:16.099Z,-0.4
2022-12-09T09:45:17.843Z,-0.4
2022-12-09T09:46:19.909Z,-0.4
2022-12-09T09:47:22.373Z,-0.4
2022-12-09T09:49:06.753Z,-0.3
2022-12-09T09:51:06.521Z,-0.2
2022-12-09T09:52:06.557Z,-0.2
2022-12-09T09:53:06.196Z,-0.1
2022-12-09T09:54:08.953Z,-0.1
2022-12-09T09:55:06.284Z,-0.1
2022-12-09T09:56:06.461Z,-0.1
2022-12-09T09:57:06.395Z,-0.1
2022-12-09T09:58:06.625Z,-0.1
2022-12-09T09:59:06.661Z,0
2022-12-09T10:00:09.760Z,0
2022-12-09T10:01:06.433Z,0
2022-12-09T10:02:06.664Z,0
2022-12-09T10:03:06.376Z,0.1
2022-12-09T10:04:06.582Z,0.1
2022-12-09T10:05:06.828Z,0
2022-12-09T10:06:06.885Z,0
2022-12-09T10:07:08.356Z,0
2022-12-09T10:08:06.314Z,0
2022-12-09T10:09:06.687Z,0
2022-12-09T10:10:08.652Z,0
2022-12-09T10:11:10.097Z,0
2022-12-09T10:12:12.215Z,0.1
2022-12-09T10:13:18.172Z,0.1
2022-12-09T10:14:17.365Z,0.1
2022-12-09T10:15:32.564Z,0.1
2022-12-09T10:16:21.045Z,0.1
2022-12-09T10:17:24.159Z,0.1
2022-12-09T10:18:26.121Z,0.1
2022-12-09T10:19:28.373Z,0.1
2022-12-09T10:20:29.885Z,0.1
2022-12-09T10:21:32.100Z,0.2
2022-12-09T10:22:33.842Z,0.2
2022-12-09T10:23:37.083Z,0.2
2022-12-09T10:24:41.003Z,0.2
2022-12-09T10:25:43.044Z,0.2
2022-12-09T10:26:45.141Z,0.2
2022-12-09T10:27:47.209Z,0.2
2022-12-09T10:28:49.049Z,0.2
2022-12-09T10:29:51.395Z,0.2
2022-12-09T10:30:54.472Z,0.2
2022-12-09T10:34:00.109Z,0.1
2022-12-09T10:35:02.484Z,0.1
2022-12-09T10:37:05.906Z,0.1
2022-12-09T10:38:08.272Z,0.1
2022-12-09T10:39:09.872Z,0.1
2022-12-09T10:40:12.378Z,0.1
2022-12-09T10:41:15.260Z,0.1
2022-12-09T10:42:16.899Z,0.1
2022-12-09T10:43:19.257Z,0.1
2022-12-09T10:45:23.125Z,0.1
2022-12-09T10:47:06.410Z,0.1
2022-12-09T10:48:06.505Z,0.1
2022-12-09T10:49:06.629Z,0.1
2022-12-09T10:50:06.817Z,0.2
2022-12-09T10:51:07.032Z,0.2
2022-12-09T10:52:06.445Z,0.2
2022-12-09T10:53:06.256Z,0.3
2022-12-09T10:54:06.364Z,0.3
2022-12-09T10:55:06.707Z,0.3
2022-12-09T10:56:06.506Z,0.3
2022-12-09T10:57:06.497Z,0.3
2022-12-09T10:58:06.482Z,0.3
2022-12-09T10:59:06.749Z,0.3
2022-12-09T11:00:06.983Z,0.3
2022-12-09T11:01:06.308Z,0.3
2022-12-09T11:02:06.386Z,0.3
2022-12-09T11:03:06.370Z,0.3
2022-12-09T11:04:06.617Z,0.3
2022-12-09T11:05:06.947Z,0.4
2022-12-09T11:06:06.518Z,0.5
2022-12-09T11:07:06.783Z,0.5
2022-12-09T11:08:08.165Z,0.5
2022-12-09T11:09:10.246Z,0.5
2022-12-09T11:10:12.871Z,0.5
2022-12-09T11:11:14.026Z,0.5
2022-12-09T11:12:16.022Z,0.5
2022-12-09T11:13:18.230Z,0.5
2022-12-09T11:14:19.900Z,0.5
2022-12-09T11:15:23.306Z,0.5
2022-12-09T11:16:25.353Z,0.5
2022-12-09T11:17:27.474Z,0.5
2022-12-09T11:18:29.305Z,0.5
2022-12-09T11:19:30.916Z,0.5
2022-12-09T11:21:06.803Z,0.5
2022-12-09T11:22:06.316Z,0.5
2022-12-09T11:23:06.572Z,0.6
2022-12-09T11:24:06.869Z,0.6
2022-12-09T11:25:06.921Z,0.6
2022-12-09T11:26:06.332Z,0.5
2022-12-09T11:27:06.397Z,0.5
2022-12-09T11:28:06.711Z,0.5
2022-12-09T11:29:06.719Z,0.5
2022-12-09T11:30:12.546Z,0.5
2022-12-09T11:31:28.922Z,0.5
2022-12-09T11:33:06.854Z,0.4
2022-12-09T11:34:06.565Z,0.4
2022-12-09T11:35:06.867Z,0.4
2022-12-09T11:37:07.868Z,0.4
2022-12-09T11:38:09.916Z,0.4
2022-12-09T11:39:25.951Z,0.4
2022-12-09T11:40:14.864Z,0.3
2022-12-09T11:41:16.870Z,0.4
2022-12-09T11:42:19.679Z,0.4
2022-12-09T11:43:20.881Z,0.4
2022-12-09T11:44:22.867Z,0.4
2022-12-09T11:45:24.850Z,0.4
2022-12-09T11:46:26.901Z,0.3
2022-12-09T11:47:28.908Z,0.3
2022-12-09T11:48:36.320Z,0.2
2022-12-09T11:49:33.884Z,0.2
2022-12-09T11:50:36.996Z,0.2
2022-12-09T11:51:39.877Z,0.2
2022-12-09T11:52:41.890Z,0.2
2022-12-09T11:53:43.887Z,0.2
2022-12-09T11:55:48.877Z,0.2
2022-12-09T11:56:50.896Z,0.3
2022-12-09T11:57:52.888Z,0.3
2022-12-09T11:58:54.914Z,0.3
2022-12-09T11:59:56.882Z,0.3
2022-12-09T12:00:58.872Z,0.3
2022-12-09T12:02:00.886Z,0.3
2022-12-09T12:03:06.373Z,0.3
2022-12-09T12:05:07.204Z,0.3
2022-12-09T12:06:09.164Z,0.3
2022-12-09T12:07:11.171Z,0.3
2022-12-09T12:08:13.372Z,0.4
2022-12-09T12:11:19.331Z,0.4
2022-12-09T12:12:21.323Z,0.4
2022-12-09T12:15:06.295Z,0.5
2022-12-09T12:16:06.263Z,0.5
2022-12-09T12:17:06.354Z,0.5
2022-12-09T12:18:06.320Z,0.5
2022-12-09T12:19:06.304Z,0.5
2022-12-09T12:21:06.291Z,0.5
2022-12-09T12:23:07.200Z,0.5
2022-12-09T12:24:09.187Z,0.5
2022-12-09T12:25:17.520Z,0.5
2022-12-09T12:26:13.213Z,0.4
2022-12-09T12:27:15.186Z,0.4
2022-12-09T12:28:17.188Z,0.4
2022-12-09T12:29:19.190Z,0.4
2022-12-09T12:30:21.224Z,0.4
2022-12-09T12:31:24.242Z,0.4
2022-12-09T12:32:26.215Z,0.5
2022-12-09T12:34:00.299Z,0.5
2022-12-09T12:34:37.311Z,0.5
2022-12-09T12:35:32.249Z,0.4
2022-12-09T12:36:35.203Z,0.5
2022-12-09T12:37:39.244Z,0.4
2022-12-09T12:38:41.205Z,0.4
2022-12-09T12:39:43.199Z,0.4
2022-12-09T12:40:45.199Z,0.3
2022-12-09T12:41:48.218Z,0.4
2022-12-09T12:43:19.930Z,0.4
2022-12-09T12:44:06.293Z,0.3
2022-12-09T12:45:06.299Z,0.3
2022-12-09T12:46:06.393Z,0.3
2022-12-09T12:47:06.308Z,0.2
2022-12-09T12:48:06.343Z,0.2
2022-12-09T12:49:06.307Z,0.2
2022-12-09T12:50:06.572Z,0.2
2022-12-09T12:51:07.224Z,0.2
2022-12-09T12:52:16.624Z,0.2
2022-12-09T12:53:11.532Z,0.3
2022-12-09T12:54:13.208Z,0.3
2022-12-09T12:56:20.001Z,0.2
2022-12-09T12:57:19.228Z,0.3
2022-12-09T12:59:06.316Z,0.2
2022-12-09T13:00:06.712Z,0.2
2022-12-09T13:01:06.346Z,0.2
2022-12-09T13:02:06.363Z,0.2
2022-12-09T13:03:09.426Z,0.2
2022-12-09T13:04:06.322Z,0.2
2022-12-09T13:07:06.322Z,0.2
2022-12-09T13:08:06.373Z,0.2
2022-12-09T13:09:06.343Z,0.2
2022-12-09T13:11:06.211Z,0.2
2022-12-09T13:12:06.215Z,0.3
2022-12-09T13:13:06.966Z,0.3
2022-12-09T13:14:09.006Z,0.3
2022-12-09T13:15:10.965Z,0.3
2022-12-09T13:16:13.045Z,0.3
2022-12-09T13:17:14.963Z,0.3
2022-12-09T13:18:17.958Z,0.4
2022-12-09T13:19:19.984Z,0.3
2022-12-09T13:20:22.989Z,0.3
2022-12-09T13:21:24.962Z,0.4
2022-12-09T13:22:26.969Z,0.4
2022-12-09T13:23:28.975Z,0.3
2022-12-09T13:24:30.970Z,0.3
2022-12-09T13:25:33.018Z,0.4
2022-12-09T13:26:34.981Z,0.4
2022-12-09T13:27:36.976Z,0.3
2022-12-09T13:28:39.973Z,0.3
2022-12-09T13:29:41.970Z,0.3
2022-12-09T13:30:44.544Z,0.3
2022-12-09T13:31:45.969Z,0.3
2022-12-09T13:32:48.990Z,0.3
2022-12-09T13:33:52.011Z,0.3
2022-12-09T13:34:53.977Z,0.3
2022-12-09T13:35:57.035Z,0.3
2022-12-09T13:36:58.962Z,0.2
2022-12-09T13:38:00.982Z,0.2
2022-12-09T13:39:03.984Z,0.2
2022-12-09T13:40:06.239Z,0.1
2022-12-09T13:42:10.993Z,0.1
2022-12-09T13:43:12.987Z,0
2022-12-09T13:44:15.996Z,0
2022-12-09T13:45:17.977Z,0
2022-12-09T13:46:20.079Z,0
2022-12-09T13:47:21.979Z,0
2022-12-09T13:48:23.988Z,-0.1
2022-12-09T13:49:25.982Z,-0.1
2022-12-09T13:50:27.980Z,-0.1
2022-12-09T13:51:29.989Z,-0.1
2022-12-09T13:52:31.997Z,-0.1
2022-12-09T13:53:34.986Z,-0.1
2022-12-09T13:54:36.982Z,-0.2
2022-12-09T13:55:38.974Z,-0.2
2022-12-09T13:56:40.997Z,-0.2
2022-12-09T13:57:43.992Z,-0.2
2022-12-09T13:58:46.001Z,-0.2
2022-12-09T13:59:49.018Z,-0.2
2022-12-09T14:00:52.010Z,-0.2
2022-12-09T14:01:54.009Z,-0.2
2022-12-09T14:02:56.114Z,-0.2
2022-12-09T14:03:58.000Z,-0.2
2022-12-09T14:04:59.990Z,-0.3
2022-12-09T14:06:01.993Z,-0.3
2022-12-09T14:07:09.905Z,-0.3
2022-12-09T14:08:06.076Z,-0.3
2022-12-09T14:09:20.031Z,-0.3
2022-12-09T14:10:10.359Z,-0.3
2022-12-09T14:11:12.028Z,-0.3
2022-12-09T14:12:13.992Z,-0.3
2022-12-09T14:13:16.020Z,-0.4
2022-12-09T14:14:17.993Z,-0.4
2022-12-09T14:15:20.188Z,-0.4
2022-12-09T14:16:23.035Z,-0.4
2022-12-09T14:17:24.999Z,-0.4
2022-12-09T14:19:29.653Z,-0.4
2022-12-09T14:20:31.840Z,-0.4
2022-12-09T14:23:37.682Z,-0.4
2022-12-09T14:24:39.693Z,-0.4
2022-12-09T14:25:44.593Z,-0.4
2022-12-09T14:26:43.659Z,-0.5
2022-12-09T14:27:45.651Z,-0.5
2022-12-09T14:29:52.010Z,-0.5
2022-12-09T14:30:54.086Z,-0.5
2022-12-09T14:31:55.969Z,-0.5
2022-12-09T14:32:57.982Z,-0.5
2022-12-09T14:33:59.969Z,-0.5
2022-12-09T14:35:01.976Z,-0.6